Flight Track Log - Related Links

Times and Time Zones

All times are in EDT time to prevent confusion due to time zone crossing. See the UAL395 flight status page for this flight to view local times or setup timezone preferences in your user account.

Time Position Orientation Groundspeed Altitude Reporting Facility
EDT Latitude Longitude Course Direction KTS MPH feet Rate Location/Type
Fri 05:19:45 PM 38.9667 -77.5667 270° West 209 241 3,700  Level Potomac TRACON
Fri 05:20:45 PM 38.9628 -77.6311 266° West 232 267 6,300 3,400 Climbing Washington Center
Fri 05:21:00 PM 38.8299 -77.8115 228° Southwest  Level FlightAware Approximate
Fri 05:21:45 PM 38.9422 -77.7294 255° West 256 295 10,500  Level Washington Center
Fri 05:22:00 PM 38.7751 -77.9084 322° Northwest  Level FlightAware Approximate
Fri 05:22:43 PM 38.9283 -77.8092 257° West 256 295 13,500  Level Washington Center
Fri 05:23:00 PM 38.8120 -78.0312 288° West  Level FlightAware Approximate
Fri 05:23:44 PM 38.9075 -77.9178 256° West 268 308 16,200  Level Washington Center
Fri 05:24:00 PM 38.8419 -78.1593 284° West  Level FlightAware Approximate
Fri 05:24:45 PM 38.8864 -78.0344 257° West 305 351 18,800  Level Washington Center
Fri 05:25:00 PM 38.8500 -78.2918 270° West  Level FlightAware Approximate
Fri 05:25:43 PM 38.8653 -78.1539 257° West 324 373 21,200  Level Washington Center
Fri 05:26:45 PM 38.8522 -78.2786 262° West 348 400 22,900 1,574 Climbing Washington Center
Fri 05:27:45 PM 38.8511 -78.4092 269° West 362 417 24,400 1,650 Climbing Washington Center
Fri 05:28:45 PM 38.8500 -78.5450 269° West 372 428 26,200 1,729 Climbing Washington Center
Fri 05:29:43 PM 38.8467 -78.6783 268° West 377 434 27,800 1,714 Climbing Washington Center
Fri 05:30:44 PM 38.8472 -78.8169 270° West 383 441 29,600 1,475 Climbing Washington Center
Fri 05:31:45 PM 38.8436 -78.9528 268° West 383 441 30,800 706 Climbing Washington Center
Fri 05:32:43 PM 38.8414 -79.0964 269° West 389 448 31,000 101 Climbing Washington Center
Fri 05:33:44 PM 38.8350 -79.2400 267° West 401 461 31,000  Level Washington Center
Fri 05:34:44 PM 38.8119 -79.3803 258° West 401 461 31,000  Level Washington Center
Fri 05:35:45 PM 38.7867 -79.5200 257° West 406 467 31,000  Level Washington Center
Fri 05:36:45 PM 38.7700 -79.6497 261° West 412 474 31,000 400 Level Washington Center
Fri 05:37:45 PM 38.7544 -79.7953 262° West 412 474 31,800 508 Climbing Washington Center
Fri 05:38:43 PM 38.7933 -79.9306 290° West 398 458 32,000 555 Climbing Washington Center
Fri 05:39:44 PM 38.8508 -80.0728 297° West 405 466 32,900 984 Climbing Washington Center
Fri 05:40:45 PM 38.9003 -80.1958 297° West 405 466 34,000 1,054 Climbing Washington Center
Fri 05:42:12 PM 38.9494 -80.3661 290° West 381 438 35,500 1,087 Climbing Indianapolis Center
Fri 05:43:14 PM 38.9878 -80.4886 292° West 374 430 36,700 774 Climbing Indianapolis Center
Fri 05:44:16 PM 39.0419 -80.6061 301° West 382 440 37,100 634 Climbing Indianapolis Center
Fri 05:45:17 PM 39.1097 -80.7508 301° West 395 455 38,000 439 Climbing Indianapolis Center
Fri 05:46:19 PM 39.1639 -80.8725 300° West 394 453 38,000  Level Indianapolis Center
Fri 05:47:20 PM 39.2192 -80.9939 300° West 394 453 38,000  Level Indianapolis Center
Fri 05:48:22 PM 39.2747 -81.1167 300° West 397 457 38,000 -48 Level Indianapolis Center
Fri 05:49:24 PM 39.3278 -81.2369 300° West 390 449 37,900  Descending Indianapolis Center
Fri 05:50:25 PM 39.3822 -81.3581 300° West 391 450 38,000 49 Climbing Indianapolis Center
Fri 05:51:27 PM 39.4361 -81.4811 300° West 394 453 38,000 -48 Level Indianapolis Center
Fri 05:52:29 PM 39.5011 -81.6289 300° West 396 456 37,900  Descending Indianapolis Center
Fri 05:53:30 PM 39.5567 -81.7550 300° West 403 464 38,000 49 Climbing Indianapolis Center
Fri 05:54:32 PM 39.6128 -81.8844 299° West 411 473 38,000 48 Level Indianapolis Center
Fri 05:55:34 PM 39.6697 -82.0142 300° West 414 476 38,100  Climbing Indianapolis Center
Fri 05:56:35 PM 39.7281 -82.1497 299° West 415 478 38,000 -98 Descending Indianapolis Center
Fri 05:57:37 PM 39.7850 -82.2806 300° West 413 475 37,900 -48 Descending Indianapolis Center
Fri 05:58:39 PM 39.8406 -82.4122 299° West 413 475 37,900 49 Level Indianapolis Center
Fri 05:59:40 PM 39.8975 -82.5444 299° West 415 478 38,000 49 Climbing Indianapolis Center
Fri 06:00:42 PM 39.9542 -82.6761 299° West 414 476 38,000  Level Indianapolis Center
Fri 06:01:44 PM 40.0200 -82.8300 299° West 414 476 38,000 -48 Level Indianapolis Center
Fri 06:02:46 PM 40.0728 -82.9558 299° West 397 457 37,900  Descending Indianapolis Center
Fri 06:03:47 PM 40.1264 -83.0844 299° West 401 461 38,000  Climbing Indianapolis Center
Fri 06:04:49 PM 40.1814 -83.2147 299° West 408 470 37,900  Descending Indianapolis Center
Fri 06:05:51 PM 40.2361 -83.3464 299° West 411 473 38,000 -293 Climbing Indianapolis Center
Fri 06:06:52 PM 40.2922 -83.4797 299° West 416 479 37,300 -829 Descending Indianapolis Center
Fri 06:07:54 PM 40.3469 -83.6139 298° West 417 480 36,300 -1,016 Descending Indianapolis Center
Fri 06:08:56 PM 40.4097 -83.7653 299° West 405 466 35,200 -1,024 Descending Indianapolis Center
Fri 06:09:57 PM 40.4639 -83.8983 298° West 408 470 34,200 -976 Descending Indianapolis Center
Fri 06:10:59 PM 40.5183 -84.0336 298° West 414 476 33,200 -968 Descending Indianapolis Center
Fri 06:12:01 PM 40.5750 -84.1725 298° West 426 490 32,200 -585 Descending Indianapolis Center
Fri 06:13:02 PM 40.6317 -84.3147 298° West 434 499 32,000 -146 Descending Indianapolis Center
Fri 06:14:04 PM 40.6897 -84.4567 298° West 437 503 31,900  Descending Indianapolis Center
Fri 06:15:06 PM 40.7467 -84.5986 298° West 435 501 32,000  Climbing Indianapolis Center
Fri 06:16:07 PM 40.8031 -84.7411 298° West 435 501 31,900 -496 Descending Indianapolis Center
Fri 06:17:07 PM 40.8608 -84.8858 298° West 436 502 31,000 -934 Descending Chicago Center
Fri 06:18:09 PM 40.9164 -85.0319 297° West 442 509 30,000 -968 Descending Chicago Center
Fri 06:19:11 PM 40.9697 -85.1781 296° West 442 509 29,000 -1,065 Descending Chicago Center
Fri 06:20:13 PM 41.0336 -85.3511 296° West 437 503 27,800 -1,065 Descending Chicago Center
Fri 06:21:15 PM 41.0858 -85.4936 296° West 430 495 26,800 -968 Descending Chicago Center
Fri 06:22:17 PM 41.1383 -85.6353 296° West 427 491 25,800 -871 Descending Chicago Center
Fri 06:23:19 PM 41.1889 -85.7753 296° West 421 484 25,000 -387 Descending Chicago Center
Fri 06:24:21 PM 41.2386 -85.9144 295° West 416 479 25,000  Level Chicago Center
Fri 06:25:23 PM 41.2842 -86.0547 293° West 415 478 25,000 -97 Level Chicago Center
Fri 06:26:25 PM 41.3089 -86.2078 282° West 425 489 24,800 -1,065 Descending Chicago Center
Fri 06:27:27 PM 41.3625 -86.3428 298° West 414 476 22,800 -2,390 Descending Chicago Center
Fri 06:28:28 PM 41.4231 -86.4967 298° West 393 452 19,900 -2,634 Descending Chicago Center
Fri 06:29:30 PM 41.4714 -86.6211 297° West 381 438 17,400 -2,419 Descending Chicago Center
Fri 06:30:32 PM 41.5219 -86.7456 299° West 369 425 14,900 -2,613 Descending Chicago Center
Fri 06:31:34 PM 41.6086 -86.7883 340° North 345 397 12,000 -1,887 Descending Chicago Center
Fri 06:32:36 PM 41.7008 -86.7989 355° North 337 388 11,000 -484 Descending Chicago Center
Fri 06:33:38 PM 41.7881 -86.8128 353° North 324 373 11,000  Level Chicago Center
Fri 06:34:40 PM 41.8864 -86.8522 343° North 313 360 11,000 -145 Level Chicago Center
Fri 06:35:42 PM 41.9111 -86.9594 287° West 314 361 10,700 -484 Descending Chicago Center
Fri 06:36:44 PM 41.9247 -87.0736 279° West 313 360 10,000 -823 Descending Chicago Center
Fri 06:37:46 PM 41.9386 -87.1761 280° West 287 330 9,000 -1,355 Descending Chicago Center
Fri 06:38:48 PM 41.9489 -87.2744 278° West 273 314 7,200 -1,742 Descending Chicago Center
Fri 06:39:50 PM 41.9617 -87.3867 279° West 259 298 5,400 -1,161 Descending Chicago Center
Fri 06:40:52 PM 41.9725 -87.4808 279° West 258 297 4,800 -677 Descending Chicago Center
Fri 06:41:54 PM 41.9817 -87.5731 278° West 256 295 4,000 -435 Descending Chicago Center
Fri 06:42:56 PM 41.9858 -87.6625 274° West 251 289 3,900 -390 Descending Chicago Center
Fri 06:43:57 PM 41.9836 -87.7381 268° West 231 266 3,200 -689 Descending Chicago Center

Login

Don't have an account? Register now (free) for customized features, flight alerts, and more!